sensor_id;sensor_type;location;lat;lon;timestamp;P1;durP1;ratioP1;P2;durP2;ratioP2
8450;SDS011;4262;50.980;13.892;2023-04-25T03:30:48;32.60;;;16.53;;
8450;SDS011;4262;50.980;13.892;2023-04-25T03:33:15;27.67;;;11.63;;
8450;SDS011;4262;50.980;13.892;2023-04-25T03:35:42;27.30;;;12.97;;
8450;SDS011;4262;50.980;13.892;2023-04-25T03:38:10;17.60;;;8.07;;
8450;SDS011;4262;50.980;13.892;2023-04-25T03:40:39;13.90;;;6.17;;
8450;SDS011;4262;50.980;13.892;2023-04-25T03:43:38;13.73;;;6.83;;
8450;SDS011;4262;50.980;13.892;2023-04-25T03:46:11;16.03;;;6.80;;
8450;SDS011;4262;50.980;13.892;2023-04-25T03:48:39;17.50;;;7.20;;
8450;SDS011;4262;50.980;13.892;2023-04-25T03:51:09;15.60;;;7.97;;
8450;SDS011;4262;50.980;13.892;2023-04-25T03:53:40;20.57;;;9.73;;
8450;SDS011;4262;50.980;13.892;2023-04-25T03:56:19;16.63;;;8.40;;
8450;SDS011;4262;50.980;13.892;2023-04-25T03:58:52;13.10;;;7.20;;
8450;SDS011;4262;50.980;13.892;2023-04-25T04:01:23;18.80;;;7.90;;
8450;SDS011;4262;50.980;13.892;2023-04-25T04:03:51;16.47;;;7.53;;
8450;SDS011;4262;50.980;13.892;2023-04-25T04:06:18;14.97;;;7.23;;
8450;SDS011;4262;50.980;13.892;2023-04-25T04:08:49;20.90;;;9.80;;
8450;SDS011;4262;50.980;13.892;2023-04-25T04:11:16;16.63;;;9.20;;
8450;SDS011;4262;50.980;13.892;2023-04-25T04:13:42;17.00;;;9.00;;
8450;SDS011;4262;50.980;13.892;2023-04-25T04:16:09;19.40;;;9.17;;
8450;SDS011;4262;50.980;13.892;2023-04-25T04:18:38;16.63;;;9.47;;
8450;SDS011;4262;50.980;13.892;2023-04-25T04:21:05;15.47;;;7.67;;
8450;SDS011;4262;50.980;13.892;2023-04-25T04:23:34;17.43;;;7.77;;
8450;SDS011;4262;50.980;13.892;2023-04-25T04:26:02;15.80;;;9.23;;
8450;SDS011;4262;50.980;13.892;2023-04-25T04:28:49;17.67;;;8.40;;
8450;SDS011;4262;50.980;13.892;2023-04-25T04:31:24;15.13;;;8.80;;
8450;SDS011;4262;50.980;13.892;2023-04-25T04:33:52;18.97;;;7.90;;
8450;SDS011;4262;50.980;13.892;2023-04-25T04:36:19;19.63;;;8.73;;
8450;SDS011;4262;50.980;13.892;2023-04-25T04:38:50;16.23;;;7.70;;
8450;SDS011;4262;50.980;13.892;2023-04-25T04:41:28;13.33;;;7.10;;
8450;SDS011;4262;50.980;13.892;2023-04-25T04:44:15;16.33;;;8.20;;
8450;SDS011;4262;50.980;13.892;2023-04-25T04:47:02;18.33;;;8.87;;
8450;SDS011;4262;50.980;13.892;2023-04-25T04:49:53;20.57;;;8.63;;
8450;SDS011;4262;50.980;13.892;2023-04-25T04:52:38;17.43;;;7.67;;
8450;SDS011;4262;50.980;13.892;2023-04-25T04:55:42;15.87;;;7.27;;
8450;SDS011;4262;50.980;13.892;2023-04-25T04:58:29;16.40;;;7.97;;
8450;SDS011;4262;50.980;13.892;2023-04-25T05:01:22;16.90;;;7.63;;
8450;SDS011;4262;50.980;13.892;2023-04-25T05:04:02;20.30;;;8.23;;
8450;SDS011;4262;50.980;13.892;2023-04-25T05:06:57;19.37;;;7.70;;
8450;SDS011;4262;50.980;13.892;2023-04-25T05:09:40;17.00;;;7.07;;
8450;SDS011;4262;50.980;13.892;2023-04-25T05:12:26;15.50;;;7.57;;
8450;SDS011;4262;50.980;13.892;2023-04-25T05:15:12;19.60;;;10.07;;
8450;SDS011;4262;50.980;13.892;2023-04-25T05:18:10;16.63;;;8.00;;
8450;SDS011;4262;50.980;13.892;2023-04-25T05:21:00;24.30;;;11.63;;
8450;SDS011;4262;50.980;13.892;2023-04-25T05:23:47;18.90;;;7.27;;
8450;SDS011;4262;50.980;13.892;2023-04-25T05:26:32;16.23;;;7.83;;
8450;SDS011;4262;50.980;13.892;2023-04-25T05:29:12;16.73;;;7.27;;
8450;SDS011;4262;50.980;13.892;2023-04-25T05:32:08;19.90;;;7.50;;
8450;SDS011;4262;50.980;13.892;2023-04-25T05:34:35;14.57;;;7.60;;
8450;SDS011;4262;50.980;13.892;2023-04-25T05:37:05;18.00;;;7.50;;
8450;SDS011;4262;50.980;13.892;2023-04-25T05:39:41;19.13;;;7.43;;
8450;SDS011;4262;50.980;13.892;2023-04-25T05:42:25;16.43;;;8.23;;
8450;SDS011;4262;50.980;13.892;2023-04-25T05:45:21;17.03;;;8.30;;
8450;SDS011;4262;50.980;13.892;2023-04-25T05:48:06;17.20;;;7.73;;
8450;SDS011;4262;50.980;13.892;2023-04-25T05:50:55;17.03;;;8.40;;
8450;SDS011;4262;50.980;13.892;2023-04-25T05:53:42;19.90;;;7.80;;
8450;SDS011;4262;50.980;13.892;2023-04-25T05:56:10;22.13;;;7.93;;
8450;SDS011;4262;50.980;13.892;2023-04-25T05:58:39;15.77;;;7.77;;
8450;SDS011;4262;50.980;13.892;2023-04-25T06:01:09;17.93;;;8.73;;
8450;SDS011;4262;50.980;13.892;2023-04-25T06:03:36;14.07;;;7.57;;
8450;SDS011;4262;50.980;13.892;2023-04-25T06:06:04;14.30;;;6.40;;
8450;SDS011;4262;50.980;13.892;2023-04-25T06:10:59;11.53;;;5.70;;
8450;SDS011;4262;50.980;13.892;2023-04-25T06:13:27;14.33;;;6.87;;
8450;SDS011;4262;50.980;13.892;2023-04-25T06:15:55;16.20;;;6.37;;
8450;SDS011;4262;50.980;13.892;2023-04-25T06:18:21;12.80;;;6.60;;
8450;SDS011;4262;50.980;13.892;2023-04-25T06:20:48;12.53;;;6.10;;
8450;SDS011;4262;50.980;13.892;2023-04-25T06:23:17;19.50;;;6.43;;
8450;SDS011;4262;50.980;13.892;2023-04-25T06:26:00;15.40;;;7.13;;
8450;SDS011;4262;50.980;13.892;2023-04-25T06:28:31;14.00;;;7.17;;
8450;SDS011;4262;50.980;13.892;2023-04-25T06:30:58;17.43;;;7.13;;
8450;SDS011;4262;50.980;13.892;2023-04-25T06:33:25;15.57;;;7.20;;
8450;SDS011;4262;50.980;13.892;2023-04-25T06:35:53;13.83;;;6.37;;
8450;SDS011;4262;50.980;13.892;2023-04-25T06:38:25;12.50;;;5.70;;
8450;SDS011;4262;50.980;13.892;2023-04-25T06:40:54;21.43;;;6.60;;
8450;SDS011;4262;50.980;13.892;2023-04-25T06:43:21;12.07;;;6.57;;
8450;SDS011;4262;50.980;13.892;2023-04-25T06:46:12;16.23;;;6.27;;
8450;SDS011;4262;50.980;13.892;2023-04-25T06:48:43;21.20;;;6.60;;
8450;SDS011;4262;50.980;13.892;2023-04-25T06:51:10;17.33;;;6.70;;
8450;SDS011;4262;50.980;13.892;2023-04-25T06:53:39;14.67;;;6.53;;
8450;SDS011;4262;50.980;13.892;2023-04-25T06:56:09;13.80;;;5.83;;
8450;SDS011;4262;50.980;13.892;2023-04-25T06:58:45;16.57;;;7.20;;
8450;SDS011;4262;50.980;13.892;2023-04-25T07:01:24;14.57;;;6.73;;
8450;SDS011;4262;50.980;13.892;2023-04-25T07:03:51;16.93;;;7.23;;
8450;SDS011;4262;50.980;13.892;2023-04-25T07:06:23;15.37;;;6.83;;
8450;SDS011;4262;50.980;13.892;2023-04-25T07:08:53;21.17;;;7.13;;
8450;SDS011;4262;50.980;13.892;2023-04-25T07:11:22;17.47;;;7.23;;
8450;SDS011;4262;50.980;13.892;2023-04-25T07:13:49;15.13;;;6.70;;
8450;SDS011;4262;50.980;13.892;2023-04-25T07:16:15;15.60;;;7.30;;
8450;SDS011;4262;50.980;13.892;2023-04-25T07:18:46;17.40;;;7.03;;
8450;SDS011;4262;50.980;13.892;2023-04-25T07:21:13;16.47;;;7.03;;
8450;SDS011;4262;50.980;13.892;2023-04-25T07:23:42;16.70;;;7.60;;
8450;SDS011;4262;50.980;13.892;2023-04-25T07:26:14;16.33;;;8.00;;
8450;SDS011;4262;50.980;13.892;2023-04-25T07:29:02;18.03;;;7.20;;
8450;SDS011;4262;50.980;13.892;2023-04-25T07:31:29;14.73;;;7.17;;
8450;SDS011;4262;50.980;13.892;2023-04-25T07:33:58;14.47;;;6.50;;
8450;SDS011;4262;50.980;13.892;2023-04-25T07:36:25;18.50;;;7.50;;
8450;SDS011;4262;50.980;13.892;2023-04-25T07:38:54;12.50;;;6.63;;
8450;SDS011;4262;50.980;13.892;2023-04-25T07:41:21;14.33;;;7.37;;
8450;SDS011;4262;50.980;13.892;2023-04-25T07:43:48;18.93;;;7.37;;
8450;SDS011;4262;50.980;13.892;2023-04-25T07:46:15;15.53;;;6.97;;
8450;SDS011;4262;50.980;13.892;2023-04-25T07:48:43;13.80;;;6.77;;
8450;SDS011;4262;50.980;13.892;2023-04-25T07:51:11;15.20;;;6.10;;
8450;SDS011;4262;50.980;13.892;2023-04-25T07:53:38;14.50;;;5.10;;
8450;SDS011;4262;50.980;13.892;2023-04-25T07:56:11;13.20;;;5.30;;
8450;SDS011;4262;50.980;13.892;2023-04-25T07:58:41;14.70;;;5.17;;
8450;SDS011;4262;50.980;13.892;2023-04-25T08:01:11;13.63;;;5.40;;
8450;SDS011;4262;50.980;13.892;2023-04-25T08:04:05;12.27;;;5.90;;
8450;SDS011;4262;50.980;13.892;2023-04-25T08:06:53;11.43;;;4.67;;
8450;SDS011;4262;50.980;13.892;2023-04-25T08:09:24;12.90;;;4.67;;
8450;SDS011;4262;50.980;13.892;2023-04-25T08:11:52;12.93;;;4.50;;
8450;SDS011;4262;50.980;13.892;2023-04-25T08:14:25;10.23;;;4.30;;
8450;SDS011;4262;50.980;13.892;2023-04-25T08:16:52;14.97;;;5.17;;
8450;SDS011;4262;50.980;13.892;2023-04-25T08:19:20;12.90;;;5.33;;
8450;SDS011;4262;50.980;13.892;2023-04-25T08:21:47;13.77;;;5.00;;
8450;SDS011;4262;50.980;13.892;2023-04-25T08:24:21;13.47;;;4.27;;
8450;SDS011;4262;50.980;13.892;2023-04-25T08:26:48;17.07;;;4.87;;
8450;SDS011;4262;50.980;13.892;2023-04-25T08:29:19;8.90;;;3.63;;
8450;SDS011;4262;50.980;13.892;2023-04-25T08:31:46;9.47;;;3.57;;
8450;SDS011;4262;50.980;13.892;2023-04-25T08:34:13;11.03;;;4.33;;
8450;SDS011;4262;50.980;13.892;2023-04-25T08:36:42;13.30;;;4.60;;
8450;SDS011;4262;50.980;13.892;2023-04-25T08:39:35;13.60;;;4.97;;
8450;SDS011;4262;50.980;13.892;2023-04-25T08:42:21;9.53;;;4.07;;
8450;SDS011;4262;50.980;13.892;2023-04-25T08:44:50;9.60;;;3.80;;
8450;SDS011;4262;50.980;13.892;2023-04-25T08:47:21;14.87;;;4.53;;
8450;SDS011;4262;50.980;13.892;2023-04-25T08:49:54;12.37;;;4.33;;
8450;SDS011;4262;50.980;13.892;2023-04-25T08:52:22;10.10;;;4.07;;
8450;SDS011;4262;50.980;13.892;2023-04-25T08:54:52;9.67;;;4.07;;
8450;SDS011;4262;50.980;13.892;2023-04-25T08:57:23;10.27;;;4.03;;
8450;SDS011;4262;50.980;13.892;2023-04-25T08:59:51;13.70;;;4.37;;
8450;SDS011;4262;50.980;13.892;2023-04-25T09:02:20;10.60;;;4.63;;
8450;SDS011;4262;50.980;13.892;2023-04-25T09:04:48;13.23;;;4.17;;
8450;SDS011;4262;50.980;13.892;2023-04-25T09:07:16;10.20;;;4.80;;
8450;SDS011;4262;50.980;13.892;2023-04-25T09:09:46;15.63;;;5.37;;
8450;SDS011;4262;50.980;13.892;2023-04-25T09:12:18;12.63;;;5.70;;
8450;SDS011;4262;50.980;13.892;2023-04-25T09:15:00;12.77;;;5.03;;
8450;SDS011;4262;50.980;13.892;2023-04-25T09:18:05;13.97;;;4.83;;
8450;SDS011;4262;50.980;13.892;2023-04-25T09:20:40;12.10;;;4.47;;
8450;SDS011;4262;50.980;13.892;2023-04-25T09:23:08;10.40;;;4.83;;
8450;SDS011;4262;50.980;13.892;2023-04-25T09:25:37;12.53;;;5.20;;
8450;SDS011;4262;50.980;13.892;2023-04-25T09:28:08;9.57;;;4.43;;
8450;SDS011;4262;50.980;13.892;2023-04-25T09:30:35;12.73;;;5.20;;
8450;SDS011;4262;50.980;13.892;2023-04-25T09:33:29;17.53;;;6.30;;
8450;SDS011;4262;50.980;13.892;2023-04-25T09:36:01;12.03;;;5.33;;
8450;SDS011;4262;50.980;13.892;2023-04-25T09:38:47;14.30;;;6.50;;
8450;SDS011;4262;50.980;13.892;2023-04-25T09:41:27;19.03;;;6.40;;
8450;SDS011;4262;50.980;13.892;2023-04-25T09:43:57;14.97;;;6.97;;
8450;SDS011;4262;50.980;13.892;2023-04-25T09:46:32;16.83;;;7.23;;
8450;SDS011;4262;50.980;13.892;2023-04-25T09:49:06;13.97;;;6.93;;
8450;SDS011;4262;50.980;13.892;2023-04-25T09:51:54;14.93;;;6.40;;
8450;SDS011;4262;50.980;13.892;2023-04-25T09:54:23;15.23;;;6.93;;
8450;SDS011;4262;50.980;13.892;2023-04-25T09:57:02;17.60;;;7.10;;
8450;SDS011;4262;50.980;13.892;2023-04-25T09:59:39;18.87;;;7.20;;
8450;SDS011;4262;50.980;13.892;2023-04-25T10:02:10;16.80;;;8.50;;
8450;SDS011;4262;50.980;13.892;2023-04-25T10:04:38;14.67;;;7.47;;
8450;SDS011;4262;50.980;13.892;2023-04-25T10:07:14;17.13;;;7.40;;
8450;SDS011;4262;50.980;13.892;2023-04-25T10:09:44;13.63;;;6.70;;
8450;SDS011;4262;50.980;13.892;2023-04-25T10:12:15;13.80;;;6.10;;
8450;SDS011;4262;50.980;13.892;2023-04-25T10:14:44;14.27;;;5.43;;
8450;SDS011;4262;50.980;13.892;2023-04-25T10:17:12;11.30;;;4.83;;
8450;SDS011;4262;50.980;13.892;2023-04-25T10:19:39;11.80;;;6.47;;
8450;SDS011;4262;50.980;13.892;2023-04-25T10:22:07;15.67;;;7.73;;
8450;SDS011;4262;50.980;13.892;2023-04-25T10:24:35;13.90;;;7.60;;
8450;SDS011;4262;50.980;13.892;2023-04-25T10:27:02;17.93;;;7.20;;
8450;SDS011;4262;50.980;13.892;2023-04-25T10:29:32;13.07;;;7.23;;
8450;SDS011;4262;50.980;13.892;2023-04-25T10:32:00;14.10;;;7.87;;
8450;SDS011;4262;50.980;13.892;2023-04-25T10:34:37;13.23;;;6.90;;
8450;SDS011;4262;50.980;13.892;2023-04-25T10:37:08;12.03;;;7.53;;
8450;SDS011;4262;50.980;13.892;2023-04-25T10:39:36;15.03;;;7.63;;
8450;SDS011;4262;50.980;13.892;2023-04-25T10:42:05;18.53;;;7.40;;
8450;SDS011;4262;50.980;13.892;2023-04-25T10:44:34;14.97;;;7.03;;
8450;SDS011;4262;50.980;13.892;2023-04-25T10:47:05;12.50;;;7.20;;
8450;SDS011;4262;50.980;13.892;2023-04-25T10:49:35;11.63;;;5.50;;
8450;SDS011;4262;50.980;13.892;2023-04-25T10:52:16;16.23;;;6.17;;
8450;SDS011;4262;50.980;13.892;2023-04-25T10:54:48;12.23;;;5.47;;
8450;SDS011;4262;50.980;13.892;2023-04-25T10:57:27;14.10;;;5.27;;
8450;SDS011;4262;50.980;13.892;2023-04-25T10:59:58;9.73;;;4.43;;
8450;SDS011;4262;50.980;13.892;2023-04-25T11:02:31;9.93;;;5.03;;
8450;SDS011;4262;50.980;13.892;2023-04-25T11:05:03;12.67;;;5.60;;
8450;SDS011;4262;50.980;13.892;2023-04-25T11:07:33;12.17;;;5.70;;
8450;SDS011;4262;50.980;13.892;2023-04-25T11:10:05;14.47;;;5.53;;
8450;SDS011;4262;50.980;13.892;2023-04-25T11:12:33;13.70;;;5.37;;
8450;SDS011;4262;50.980;13.892;2023-04-25T11:15:00;13.23;;;5.57;;
8450;SDS011;4262;50.980;13.892;2023-04-25T11:17:28;12.37;;;6.40;;
8450;SDS011;4262;50.980;13.892;2023-04-25T11:19:58;16.53;;;7.30;;
8450;SDS011;4262;50.980;13.892;2023-04-25T11:22:26;24.70;;;8.40;;
8450;SDS011;4262;50.980;13.892;2023-04-25T11:24:53;16.70;;;8.40;;
8450;SDS011;4262;50.980;13.892;2023-04-25T11:27:20;16.23;;;8.37;;
8450;SDS011;4262;50.980;13.892;2023-04-25T11:29:48;23.10;;;9.07;;
8450;SDS011;4262;50.980;13.892;2023-04-25T11:32:15;20.90;;;8.80;;
8450;SDS011;4262;50.980;13.892;2023-04-25T11:34:44;16.40;;;9.13;;
8450;SDS011;4262;50.980;13.892;2023-04-25T11:37:13;16.47;;;9.33;;
8450;SDS011;4262;50.980;13.892;2023-04-25T11:39:44;16.57;;;7.60;;
8450;SDS011;4262;50.980;13.892;2023-04-25T11:42:12;16.63;;;7.60;;
8450;SDS011;4262;50.980;13.892;2023-04-25T11:44:39;16.33;;;7.50;;
8450;SDS011;4262;50.980;13.892;2023-04-25T11:47:06;14.37;;;7.60;;
8450;SDS011;4262;50.980;13.892;2023-04-25T11:49:35;25.70;;;6.87;;
8450;SDS011;4262;50.980;13.892;2023-04-25T11:52:02;16.23;;;5.93;;
8450;SDS011;4262;50.980;13.892;2023-04-25T11:54:30;15.13;;;5.10;;
8450;SDS011;4262;50.980;13.892;2023-04-25T11:56:57;13.33;;;4.17;;
8450;SDS011;4262;50.980;13.892;2023-04-25T11:59:25;16.27;;;3.90;;
8450;SDS011;4262;50.980;13.892;2023-04-25T12:01:53;12.77;;;3.73;;
8450;SDS011;4262;50.980;13.892;2023-04-25T12:04:20;8.30;;;3.03;;
8450;SDS011;4262;50.980;13.892;2023-04-25T12:06:48;11.60;;;3.10;;
8450;SDS011;4262;50.980;13.892;2023-04-25T12:09:18;10.67;;;3.33;;
8450;SDS011;4262;50.980;13.892;2023-04-25T12:11:48;9.50;;;2.83;;
8450;SDS011;4262;50.980;13.892;2023-04-25T12:14:22;12.13;;;3.47;;
8450;SDS011;4262;50.980;13.892;2023-04-25T12:16:50;11.73;;;3.10;;
8450;SDS011;4262;50.980;13.892;2023-04-25T12:19:19;9.80;;;3.10;;
8450;SDS011;4262;50.980;13.892;2023-04-25T12:21:47;9.33;;;3.40;;
8450;SDS011;4262;50.980;13.892;2023-04-25T12:24:15;12.93;;;3.60;;
8450;SDS011;4262;50.980;13.892;2023-04-25T12:26:48;9.40;;;3.53;;
8450;SDS011;4262;50.980;13.892;2023-04-25T12:29:17;11.80;;;4.13;;
8450;SDS011;4262;50.980;13.892;2023-04-25T12:31:45;10.63;;;4.27;;
8450;SDS011;4262;50.980;13.892;2023-04-25T12:34:12;12.27;;;3.83;;
8450;SDS011;4262;50.980;13.892;2023-04-25T12:36:40;11.40;;;4.00;;
8450;SDS011;4262;50.980;13.892;2023-04-25T12:39:06;16.87;;;5.60;;
8450;SDS011;4262;50.980;13.892;2023-04-25T12:41:34;14.23;;;4.57;;
8450;SDS011;4262;50.980;13.892;2023-04-25T12:44:04;14.40;;;4.70;;
8450;SDS011;4262;50.980;13.892;2023-04-25T12:46:31;13.13;;;4.40;;
8450;SDS011;4262;50.980;13.892;2023-04-25T12:48:58;21.97;;;4.67;;
8450;SDS011;4262;50.980;13.892;2023-04-25T12:51:26;11.70;;;4.70;;
8450;SDS011;4262;50.980;13.892;2023-04-25T12:53:53;16.73;;;4.70;;
8450;SDS011;4262;50.980;13.892;2023-04-25T12:56:20;27.30;;;4.77;;
8450;SDS011;4262;50.980;13.892;2023-04-25T12:58:47;16.63;;;4.80;;
8450;SDS011;4262;50.980;13.892;2023-04-25T13:01:15;15.90;;;4.27;;
8450;SDS011;4262;50.980;13.892;2023-04-25T13:03:42;13.87;;;4.20;;
8450;SDS011;4262;50.980;13.892;2023-04-25T13:06:09;14.00;;;5.70;;
8450;SDS011;4262;50.980;13.892;2023-04-25T13:08:36;22.50;;;4.43;;
8450;SDS011;4262;50.980;13.892;2023-04-25T13:11:05;14.33;;;4.23;;
8450;SDS011;4262;50.980;13.892;2023-04-25T13:13:32;19.13;;;5.10;;
8450;SDS011;4262;50.980;13.892;2023-04-25T13:16:00;15.33;;;4.63;;
8450;SDS011;4262;50.980;13.892;2023-04-25T13:18:28;15.03;;;5.37;;
8450;SDS011;4262;50.980;13.892;2023-04-25T13:20:57;17.33;;;5.23;;
8450;SDS011;4262;50.980;13.892;2023-04-25T13:23:25;20.43;;;5.03;;
8450;SDS011;4262;50.980;13.892;2023-04-25T13:25:53;15.77;;;5.67;;
8450;SDS011;4262;50.980;13.892;2023-04-25T13:28:20;16.60;;;5.23;;
8450;SDS011;4262;50.980;13.892;2023-04-25T13:30:47;20.23;;;5.50;;
8450;SDS011;4262;50.980;13.892;2023-04-25T13:33:15;16.87;;;5.97;;
8450;SDS011;4262;50.980;13.892;2023-04-25T13:35:43;17.33;;;5.20;;
8450;SDS011;4262;50.980;13.892;2023-04-25T13:38:12;17.17;;;6.63;;
8450;SDS011;4262;50.980;13.892;2023-04-25T13:40:40;18.37;;;5.97;;
8450;SDS011;4262;50.980;13.892;2023-04-25T13:43:07;22.63;;;6.20;;
8450;SDS011;4262;50.980;13.892;2023-04-25T13:45:34;18.17;;;5.70;;
8450;SDS011;4262;50.980;13.892;2023-04-25T13:48:01;27.67;;;6.53;;
8450;SDS011;4262;50.980;13.892;2023-04-25T13:50:29;22.50;;;7.17;;
8450;SDS011;4262;50.980;13.892;2023-04-25T13:52:58;20.20;;;6.53;;
8450;SDS011;4262;50.980;13.892;2023-04-25T13:55:25;25.87;;;7.40;;
8450;SDS011;4262;50.980;13.892;2023-04-25T13:57:52;24.67;;;8.70;;
8450;SDS011;4262;50.980;13.892;2023-04-25T14:00:21;26.90;;;6.43;;
8450;SDS011;4262;50.980;13.892;2023-04-25T14:02:47;25.23;;;6.03;;
8450;SDS011;4262;50.980;13.892;2023-04-25T14:05:14;20.17;;;5.43;;
8450;SDS011;4262;50.980;13.892;2023-04-25T14:07:41;17.07;;;5.77;;
8450;SDS011;4262;50.980;13.892;2023-04-25T14:10:11;20.10;;;6.00;;
8450;SDS011;4262;50.980;13.892;2023-04-25T14:12:38;20.53;;;5.63;;
8450;SDS011;4262;50.980;13.892;2023-04-25T14:15:05;20.20;;;5.87;;
8450;SDS011;4262;50.980;13.892;2023-04-25T14:17:32;22.63;;;7.00;;
8450;SDS011;4262;50.980;13.892;2023-04-25T14:20:00;16.20;;;6.20;;
8450;SDS011;4262;50.980;13.892;2023-04-25T14:22:26;18.97;;;5.10;;
8450;SDS011;4262;50.980;13.892;2023-04-25T14:24:54;23.47;;;6.80;;
8450;SDS011;4262;50.980;13.892;2023-04-25T14:27:22;23.87;;;6.83;;
8450;SDS011;4262;50.980;13.892;2023-04-25T14:29:49;21.77;;;6.23;;
8450;SDS011;4262;50.980;13.892;2023-04-25T14:32:16;16.73;;;6.43;;
8450;SDS011;4262;50.980;13.892;2023-04-25T14:34:42;26.77;;;6.37;;
8450;SDS011;4262;50.980;13.892;2023-04-25T14:37:10;25.70;;;5.63;;
8450;SDS011;4262;50.980;13.892;2023-04-25T14:39:37;18.30;;;6.20;;
8450;SDS011;4262;50.980;13.892;2023-04-25T14:42:05;20.83;;;6.53;;
8450;SDS011;4262;50.980;13.892;2023-04-25T14:44:33;22.53;;;6.80;;
8450;SDS011;4262;50.980;13.892;2023-04-25T14:47:00;15.60;;;5.10;;
8450;SDS011;4262;50.980;13.892;2023-04-25T14:49:26;22.13;;;5.73;;
8450;SDS011;4262;50.980;13.892;2023-04-25T14:51:54;17.97;;;5.93;;
8450;SDS011;4262;50.980;13.892;2023-04-25T14:54:20;24.50;;;6.80;;
8450;SDS011;4262;50.980;13.892;2023-04-25T14:56:47;20.40;;;6.20;;
8450;SDS011;4262;50.980;13.892;2023-04-25T14:59:14;20.20;;;6.77;;
8450;SDS011;4262;50.980;13.892;2023-04-25T15:01:42;13.60;;;6.00;;
8450;SDS011;4262;50.980;13.892;2023-04-25T15:04:09;17.30;;;6.30;;
8450;SDS011;4262;50.980;13.892;2023-04-25T15:06:37;31.27;;;6.57;;
8450;SDS011;4262;50.980;13.892;2023-04-25T15:09:04;21.67;;;6.63;;
8450;SDS011;4262;50.980;13.892;2023-04-25T15:11:32;16.60;;;5.83;;
8450;SDS011;4262;50.980;13.892;2023-04-25T15:13:59;18.93;;;6.90;;
8450;SDS011;4262;50.980;13.892;2023-04-25T15:16:27;23.17;;;6.80;;
8450;SDS011;4262;50.980;13.892;2023-04-25T15:18:57;21.20;;;7.27;;
8450;SDS011;4262;50.980;13.892;2023-04-25T15:21:25;14.30;;;5.90;;
8450;SDS011;4262;50.980;13.892;2023-04-25T15:23:52;19.30;;;6.10;;
8450;SDS011;4262;50.980;13.892;2023-04-25T15:26:19;23.80;;;6.60;;
8450;SDS011;4262;50.980;13.892;2023-04-25T15:28:46;23.80;;;5.97;;
8450;SDS011;4262;50.980;13.892;2023-04-25T15:31:15;42.53;;;6.60;;
8450;SDS011;4262;50.980;13.892;2023-04-25T15:33:41;21.87;;;5.70;;
8450;SDS011;4262;50.980;13.892;2023-04-25T15:36:10;16.37;;;5.13;;
8450;SDS011;4262;50.980;13.892;2023-04-25T15:38:37;16.33;;;5.70;;
8450;SDS011;4262;50.980;13.892;2023-04-25T15:41:04;18.73;;;5.10;;
8450;SDS011;4262;50.980;13.892;2023-04-25T15:43:31;17.77;;;5.87;;
8450;SDS011;4262;50.980;13.892;2023-04-25T15:46:00;15.87;;;4.83;;
8450;SDS011;4262;50.980;13.892;2023-04-25T15:48:27;14.53;;;4.70;;
8450;SDS011;4262;50.980;13.892;2023-04-25T15:50:54;21.90;;;4.60;;
8450;SDS011;4262;50.980;13.892;2023-04-25T15:53:22;12.97;;;4.17;;
8450;SDS011;4262;50.980;13.892;2023-04-25T15:55:49;15.83;;;4.20;;
8450;SDS011;4262;50.980;13.892;2023-04-25T15:58:15;17.47;;;4.70;;
8450;SDS011;4262;50.980;13.892;2023-04-25T16:00:44;17.90;;;4.30;;
8450;SDS011;4262;50.980;13.892;2023-04-25T16:03:13;18.60;;;4.37;;
8450;SDS011;4262;50.980;13.892;2023-04-25T16:05:40;11.83;;;3.60;;
8450;SDS011;4262;50.980;13.892;2023-04-25T16:08:06;18.63;;;5.57;;
8450;SDS011;4262;50.980;13.892;2023-04-25T16:10:36;14.93;;;4.90;;
8450;SDS011;4262;50.980;13.892;2023-04-25T16:13:03;16.97;;;4.40;;
8450;SDS011;4262;50.980;13.892;2023-04-25T16:15:29;19.30;;;4.50;;
8450;SDS011;4262;50.980;13.892;2023-04-25T16:17:56;13.60;;;4.53;;
8450;SDS011;4262;50.980;13.892;2023-04-25T16:20:23;12.63;;;5.23;;
8450;SDS011;4262;50.980;13.892;2023-04-25T16:22:50;17.17;;;5.00;;
8450;SDS011;4262;50.980;13.892;2023-04-25T16:25:17;14.00;;;5.20;;
8450;SDS011;4262;50.980;13.892;2023-04-25T16:27:47;16.23;;;5.60;;
8450;SDS011;4262;50.980;13.892;2023-04-25T16:30:14;16.60;;;5.07;;
8450;SDS011;4262;50.980;13.892;2023-04-25T16:32:41;13.43;;;5.43;;
8450;SDS011;4262;50.980;13.892;2023-04-25T16:35:08;21.73;;;4.80;;
8450;SDS011;4262;50.980;13.892;2023-04-25T16:37:35;15.83;;;4.57;;
8450;SDS011;4262;50.980;13.892;2023-04-25T16:40:02;18.70;;;5.17;;
8450;SDS011;4262;50.980;13.892;2023-04-25T16:42:33;18.70;;;5.73;;
8450;SDS011;4262;50.980;13.892;2023-04-25T16:45:01;17.23;;;4.83;;
8450;SDS011;4262;50.980;13.892;2023-04-25T16:47:29;14.73;;;4.53;;
8450;SDS011;4262;50.980;13.892;2023-04-25T16:49:58;18.70;;;4.07;;
8450;SDS011;4262;50.980;13.892;2023-04-25T16:52:25;13.03;;;4.17;;
8450;SDS011;4262;50.980;13.892;2023-04-25T16:54:52;17.43;;;4.63;;
8450;SDS011;4262;50.980;13.892;2023-04-25T16:57:18;13.80;;;4.77;;
8450;SDS011;4262;50.980;13.892;2023-04-25T16:59:45;17.33;;;5.03;;
8450;SDS011;4262;50.980;13.892;2023-04-25T17:02:13;16.33;;;3.80;;
8450;SDS011;4262;50.980;13.892;2023-04-25T17:04:40;13.90;;;4.13;;
8450;SDS011;4262;50.980;13.892;2023-04-25T17:07:07;18.53;;;4.77;;
8450;SDS011;4262;50.980;13.892;2023-04-25T17:09:35;15.33;;;4.23;;
8450;SDS011;4262;50.980;13.892;2023-04-25T17:12:03;14.90;;;3.70;;
8450;SDS011;4262;50.980;13.892;2023-04-25T17:14:31;15.83;;;4.00;;
8450;SDS011;4262;50.980;13.892;2023-04-25T17:17:00;11.13;;;3.90;;
8450;SDS011;4262;50.980;13.892;2023-04-25T17:19:28;10.73;;;3.07;;
8450;SDS011;4262;50.980;13.892;2023-04-25T17:21:57;16.17;;;3.80;;
8450;SDS011;4262;50.980;13.892;2023-04-25T17:24:24;9.40;;;3.67;;
8450;SDS011;4262;50.980;13.892;2023-04-25T17:26:50;12.20;;;3.60;;
8450;SDS011;4262;50.980;13.892;2023-04-25T17:29:17;14.17;;;3.70;;
8450;SDS011;4262;50.980;13.892;2023-04-25T17:31:47;14.63;;;4.43;;
8450;SDS011;4262;50.980;13.892;2023-04-25T17:34:14;19.50;;;4.23;;
8450;SDS011;4262;50.980;13.892;2023-04-25T17:36:44;14.10;;;3.83;;
8450;SDS011;4262;50.980;13.892;2023-04-25T17:39:11;15.80;;;3.67;;
8450;SDS011;4262;50.980;13.892;2023-04-25T17:41:39;42.73;;;17.13;;
8450;SDS011;4262;50.980;13.892;2023-04-25T17:44:06;19.43;;;6.93;;
8450;SDS011;4262;50.980;13.892;2023-04-25T17:46:32;12.80;;;4.17;;
8450;SDS011;4262;50.980;13.892;2023-04-25T17:48:59;10.53;;;4.23;;
8450;SDS011;4262;50.980;13.892;2023-04-25T17:51:26;16.00;;;3.77;;
8450;SDS011;4262;50.980;13.892;2023-04-25T17:53:54;15.47;;;3.73;;
8450;SDS011;4262;50.980;13.892;2023-04-25T17:56:21;15.40;;;3.80;;
8450;SDS011;4262;50.980;13.892;2023-04-25T17:58:49;15.33;;;3.67;;
8450;SDS011;4262;50.980;13.892;2023-04-25T18:01:17;10.33;;;4.10;;
8450;SDS011;4262;50.980;13.892;2023-04-25T18:03:44;12.03;;;3.33;;
8450;SDS011;4262;50.980;13.892;2023-04-25T18:06:13;18.70;;;3.70;;
8450;SDS011;4262;50.980;13.892;2023-04-25T18:08:40;10.90;;;4.17;;
8450;SDS011;4262;50.980;13.892;2023-04-25T18:11:11;14.57;;;4.13;;
8450;SDS011;4262;50.980;13.892;2023-04-25T18:13:38;14.83;;;4.40;;
8450;SDS011;4262;50.980;13.892;2023-04-25T18:16:06;15.60;;;4.90;;
8450;SDS011;4262;50.980;13.892;2023-04-25T18:18:33;11.17;;;4.53;;
8450;SDS011;4262;50.980;13.892;2023-04-25T18:21:01;13.57;;;4.63;;
8450;SDS011;4262;50.980;13.892;2023-04-25T18:23:29;11.83;;;3.83;;
8450;SDS011;4262;50.980;13.892;2023-04-25T18:25:56;13.27;;;5.23;;
8450;SDS011;4262;50.980;13.892;2023-04-25T18:28:25;11.60;;;4.43;;
8450;SDS011;4262;50.980;13.892;2023-04-25T18:30:52;11.50;;;4.50;;
8450;SDS011;4262;50.980;13.892;2023-04-25T18:33:18;12.47;;;4.50;;
8450;SDS011;4262;50.980;13.892;2023-04-25T18:35:45;13.53;;;5.50;;
8450;SDS011;4262;50.980;13.892;2023-04-25T18:38:13;12.93;;;4.70;;
8450;SDS011;4262;50.980;13.892;2023-04-25T18:40:40;14.30;;;5.00;;